»·PEaware :: DAL1206 KRNO-KSLC

DAL1206 :: KRNO-KSLC

FLIGHT INFORMATION

Flight Status: Arrived
Operator:
Delta Air Lines
More flights by this operator :: More flights under this callsign
Pilot: Sanjiv S. (4490)
Aircraft: BOEING 737-800
(B738)
More flights by this aircraft type
Origin: KRNO Reno/Tahoe Intl
United States
Destination: KSLC Salt Lake City Intl
United States
More flights between these airports :: More routes between these airports
Route: ZEFFR6 BLKJK LLC BAM J154 BVL WAATS5
File this flight plan on PilotEdge
Remarks:
Altitude:
(Current/Filed)
35,000ft
Speed:
(Current/Filed)
430kts
Departed: 24-Mar-18 07:47 PM
Arrived: 24-Mar-18 08:51 PM
Distance/Time
Traveled:
365nm/1:04
Distance/Time
To Go:
Arrived

Flight Plot

Page will automatically refresh every two minutes.

Flight plan parsing failed; only flown route is shown


Map Options




Map Legend


Flown Route
Filed Route
Departure Airport
Arrival Airport
Navaid (VOR, NDB)
Fix

Horizontal Profiles

Position Reports

Time Latitude Longitude Heading Altitude Ground
Speed
24-Mar-18 19:23 39.505375 -119.772708 197 4412ft 0kts
24-Mar-18 19:24 39.505375 -119.772708 197 4412ft 0kts
24-Mar-18 19:25 39.505375 -119.772708 197 4412ft 0kts
24-Mar-18 19:26 39.505375 -119.772708 197 4412ft 0kts
24-Mar-18 19:27 39.505375 -119.772708 197 4412ft 0kts
24-Mar-18 19:28 39.505375 -119.772708 197 4412ft 0kts
24-Mar-18 19:29 39.505375 -119.772708 197 4412ft 0kts
24-Mar-18 19:30 39.505375 -119.772708 197 4412ft 0kts
24-Mar-18 19:31 39.505375 -119.772707 197 4413ft 0kts
24-Mar-18 19:32 39.505711 -119.772620 162 4412ft 2kts
24-Mar-18 19:33 39.505922 -119.773042 89 4413ft 0kts
24-Mar-18 19:34 39.505922 -119.773042 89 4413ft 0kts
24-Mar-18 19:35 39.505922 -119.773042 89 4413ft 0kts
24-Mar-18 19:36 39.505922 -119.773042 89 4413ft 0kts
24-Mar-18 19:37 39.505923 -119.772966 89 4413ft 3kts
24-Mar-18 19:38 39.505983 -119.771641 91 4412ft 3kts
24-Mar-18 19:39 39.503364 -119.771540 178 4410ft 15kts
24-Mar-18 19:40 39.500379 -119.772465 304 4410ft 7kts
24-Mar-18 19:41 39.504893 -119.771575 2 4410ft 33kts
24-Mar-18 19:42 39.513732 -119.770660 89 4418ft 12kts
24-Mar-18 19:43 39.513731 -119.770393 90 4418ft 0kts
24-Mar-18 19:44 39.513731 -119.770384 89 4418ft 0kts
24-Mar-18 19:45 39.513244 -119.769264 172 4417ft 11kts
24-Mar-18 19:46 39.489669 -119.768511 170 4710ft 192kts
24-Mar-18 19:47 39.433911 -119.769020 184 7006ft 255kts
24-Mar-18 19:48 39.366726 -119.769798 180 10645ft 270kts
24-Mar-18 19:49 39.306034 -119.739412 133 13915ft 312kts
24-Mar-18 19:50 39.282851 -119.649868 88 16044ft 374kts
24-Mar-18 19:51 39.323875 -119.550976 47 18758ft 400kts
24-Mar-18 19:52 39.386928 -119.464114 37 21264ft 416kts
24-Mar-18 19:53 39.466121 -119.373499 39 23784ft 436kts
24-Mar-18 19:54 39.544123 -119.280375 40 25931ft 452kts
24-Mar-18 19:55 39.623678 -119.184267 40 27829ft 468kts
24-Mar-18 19:56 39.709852 -119.079779 39 29869ft 477kts
24-Mar-18 19:57 39.800947 -118.969415 38 32032ft 479kts
24-Mar-18 19:58 39.894307 -118.856489 39 33796ft 485kts
24-Mar-18 19:59 39.990921 -118.739752 39 34898ft 505kts
24-Mar-18 20:00 40.092972 -118.616545 39 34892ft 533kts
24-Mar-18 20:01 40.161667 -118.464741 78 34897ft 532kts
24-Mar-18 20:02 40.201480 -118.291958 73 34872ft 533kts
24-Mar-18 20:03 40.248086 -118.114481 73 34876ft 534kts
24-Mar-18 20:04 40.293750 -117.942025 72 34892ft 534kts
24-Mar-18 20:05 40.339539 -117.770068 72 34918ft 533kts
24-Mar-18 20:06 40.384742 -117.601221 72 34922ft 533kts
24-Mar-18 20:07 40.431746 -117.426601 72 34885ft 534kts
24-Mar-18 20:08 40.478365 -117.254689 72 34849ft 533kts
24-Mar-18 20:09 40.525795 -117.080548 72 34852ft 535kts
24-Mar-18 20:10 40.572096 -116.905227 81 34846ft 537kts
24-Mar-18 20:11 40.580570 -116.716806 92 34858ft 530kts
24-Mar-18 20:12 40.587757 -116.556752 91 34861ft 531kts
24-Mar-18 20:13 40.594585 -116.416932 90 34900ft 534kts
24-Mar-18 20:14 40.603186 -116.247743 91 34868ft 533kts
24-Mar-18 20:15 40.612431 -116.069821 91 34853ft 534kts
24-Mar-18 20:16 40.622066 -115.889164 91 34856ft 534kts
24-Mar-18 20:17 40.631883 -115.710241 90 34859ft 534kts
24-Mar-18 20:18 40.642132 -115.528674 90 34862ft 534kts
24-Mar-18 20:19 40.652460 -115.350567 90 34866ft 534kts
24-Mar-18 20:20 40.662856 -115.177542 90 34852ft 534kts
24-Mar-18 20:21 40.674197 -114.992021 90 34855ft 538kts
24-Mar-18 20:22 40.683893 -114.800006 93 34889ft 537kts
24-Mar-18 20:23 40.690981 -114.605223 92 34917ft 537kts
24-Mar-18 20:24 40.698464 -114.410644 92 34921ft 537kts
24-Mar-18 20:25 40.704673 -114.257650 93 34906ft 537kts
24-Mar-18 20:26 40.712845 -114.060734 92 34910ft 537kts
24-Mar-18 20:27 40.721019 -113.874175 93 33899ft 491kts
24-Mar-18 20:28 40.726884 -113.697262 96 31458ft 483kts
24-Mar-18 20:29 40.725879 -113.524605 95 29079ft 479kts
24-Mar-18 20:30 40.725381 -113.354467 95 26422ft 458kts
24-Mar-18 20:31 40.725108 -113.265644 95 24609ft 436kts
24-Mar-18 20:32 40.724365 -113.114037 94 21458ft 408kts
24-Mar-18 20:33 40.723491 -112.972793 94 18347ft 381kts
24-Mar-18 20:34 40.722503 -112.838535 96 17030ft 371kts
24-Mar-18 20:35 40.721299 -112.703923 97 17022ft 373kts
24-Mar-18 20:36 40.719985 -112.570105 97 17022ft 373kts
24-Mar-18 20:37 40.716920 -112.435748 98 17022ft 371kts
24-Mar-18 20:38 40.713334 -112.321281 99 16967ft 366kts
24-Mar-18 20:39 40.713394 -112.191520 86 14796ft 363kts
24-Mar-18 20:40 40.767892 -112.099451 22 12575ft 363kts
24-Mar-18 20:41 40.859134 -112.100944 348 10191ft 324kts
24-Mar-18 20:42 40.940644 -112.113922 353 7715ft 281kts
24-Mar-18 20:43 41.013359 -112.111823 36 5991ft 238kts
24-Mar-18 20:44 41.019422 -112.050323 137 6058ft 179kts
24-Mar-18 20:45 40.981519 -112.007719 141 5992ft 179kts
24-Mar-18 20:46 40.943537 -111.993391 171 5994ft 178kts
24-Mar-18 20:47 40.891621 -111.986716 175 5882ft 160kts
24-Mar-18 20:48 40.852417 -111.982125 177 5123ft 124kts
24-Mar-18 20:49 40.822558 -111.978361 178 4571ft 132kts
24-Mar-18 20:50 40.791927 -111.975535 195 4235ft 36kts
24-Mar-18 20:51 40.790351 -111.976404 203 4235ft 0kts
24-Mar-18 20:52 40.790323 -111.976420 203 4235ft 0kts
24-Mar-18 20:53 40.790196 -111.976494 203 4235ft 6kts
24-Mar-18 20:54 40.786337 -111.976664 175 4235ft 21kts
24-Mar-18 20:55 40.782630 -111.977412 146 4235ft 18kts
24-Mar-18 20:56 40.778294 -111.977220 235 4235ft 10kts
24-Mar-18 20:57 40.778164 -111.978094 264 4235ft 0kts

Navigation Log

Ident Type
Flight plan parsing failed, navigation log unavailable